createdAt,value
2019-06-01T00:01:08.743Z,100.00
2019-06-01T00:03:38.202Z,100.00
2019-06-01T00:06:05.430Z,100.00
2019-06-01T00:08:32.201Z,100.00
2019-06-01T00:10:58.884Z,100.00
2019-06-01T00:13:25.543Z,100.00
2019-06-01T00:15:52.200Z,100.00
2019-06-01T00:18:18.984Z,100.00
2019-06-01T00:20:45.756Z,100.00
2019-06-01T00:23:12.539Z,100.00
2019-06-01T00:25:40.398Z,100.00
2019-06-01T00:28:07.407Z,100.00
2019-06-01T00:30:34.181Z,100.00
2019-06-01T00:33:00.890Z,100.00
2019-06-01T00:35:27.548Z,100.00
2019-06-01T00:37:54.273Z,100.00
2019-06-01T00:40:21.093Z,100.00
2019-06-01T00:42:48.306Z,100.00
2019-06-01T00:45:15.238Z,100.00
2019-06-01T00:47:42.677Z,100.00
2019-06-01T00:50:09.586Z,100.00
2019-06-01T00:52:36.354Z,100.00
2019-06-01T00:55:04.243Z,100.00
2019-06-01T00:57:30.918Z,100.00
2019-06-01T00:59:57.619Z,100.00
2019-06-01T01:02:24.400Z,100.00
2019-06-01T01:05:12.003Z,100.00
2019-06-01T01:07:38.768Z,100.00
2019-06-01T01:10:05.584Z,100.00
2019-06-01T01:12:34.576Z,100.00
2019-06-01T01:15:01.358Z,100.00
2019-06-01T01:17:28.103Z,100.00
2019-06-01T01:19:55.965Z,100.00
2019-06-01T01:22:22.791Z,100.00
2019-06-01T01:24:50.499Z,100.00
2019-06-01T01:27:17.361Z,100.00
2019-06-01T01:29:44.032Z,100.00
2019-06-01T01:32:10.713Z,100.00
2019-06-01T01:34:37.405Z,100.00
2019-06-01T01:37:04.166Z,100.00
2019-06-01T01:39:30.836Z,100.00
2019-06-01T01:41:58.595Z,100.00
2019-06-01T01:44:25.423Z,100.00
2019-06-01T01:46:52.772Z,100.00
2019-06-01T01:49:19.559Z,100.00
2019-06-01T01:51:46.234Z,100.00
2019-06-01T01:54:12.929Z,100.00
2019-06-01T01:56:48.368Z,100.00
2019-06-01T01:59:17.015Z,100.00
2019-06-01T02:01:43.775Z,100.00
2019-06-01T02:04:11.419Z,100.00
2019-06-01T02:06:39.211Z,100.00
2019-06-01T02:09:07.105Z,100.00
2019-06-01T02:11:33.962Z,100.00
2019-06-01T02:14:02.084Z,100.00
2019-06-01T02:16:29.015Z,100.00
2019-06-01T02:18:57.230Z,100.00
2019-06-01T02:21:24.375Z,100.00
2019-06-01T02:23:51.054Z,100.00
2019-06-01T02:26:17.820Z,100.00
2019-06-01T02:28:44.492Z,100.00
2019-06-01T02:31:11.163Z,100.00
2019-06-01T02:33:37.834Z,100.00
2019-06-01T02:36:05.336Z,100.00
2019-06-01T02:38:32.286Z,100.00
2019-06-01T02:41:01.013Z,100.00
2019-06-01T02:43:27.645Z,100.00
2019-06-01T02:45:56.196Z,100.00
2019-06-01T02:48:23.207Z,100.00
2019-06-01T02:50:49.886Z,100.00
2019-06-01T02:53:16.646Z,100.00
2019-06-01T02:55:43.438Z,100.00
2019-06-01T02:58:10.100Z,100.00
2019-06-01T03:01:21.453Z,100.00
2019-06-01T03:03:49.949Z,100.00
2019-06-01T03:06:16.738Z,100.00
2019-06-01T03:08:44.849Z,100.00
2019-06-01T03:11:13.986Z,100.00
2019-06-01T03:13:41.063Z,100.00
2019-06-01T03:16:09.733Z,100.00
2019-06-01T03:18:37.915Z,100.00
2019-06-01T03:21:06.401Z,100.00
2019-06-01T03:23:34.321Z,100.00
2019-06-01T03:26:02.090Z,100.00
2019-06-01T03:28:30.780Z,100.00
2019-06-01T03:30:57.486Z,100.00
2019-06-01T03:33:24.247Z,100.00
2019-06-01T03:35:51.065Z,100.00
2019-06-01T03:38:17.849Z,100.00
2019-06-01T03:40:45.626Z,100.00
2019-06-01T03:43:12.714Z,100.00
2019-06-01T03:45:39.378Z,100.00
2019-06-01T03:48:06.773Z,100.00
2019-06-01T03:50:33.663Z,100.00
2019-06-01T03:53:01.739Z,100.00
2019-06-01T03:55:28.508Z,100.00
2019-06-01T03:57:55.315Z,100.00
2019-06-01T04:00:22.102Z,100.00
2019-06-01T04:02:48.773Z,100.00
2019-06-01T04:05:16.944Z,100.00
2019-06-01T04:07:43.599Z,100.00
2019-06-01T04:10:11.779Z,100.00
2019-06-01T04:12:38.537Z,100.00
2019-06-01T04:15:10.177Z,100.00
2019-06-01T04:17:33.946Z,100.00
2019-06-01T04:20:02.046Z,100.00
2019-06-01T04:22:28.942Z,100.00
2019-06-01T04:24:56.385Z,100.00
2019-06-01T04:27:23.073Z,100.00
2019-06-01T04:29:49.876Z,100.00
2019-06-01T04:32:16.649Z,100.00
2019-06-01T04:34:44.430Z,100.00
2019-06-01T04:37:11.328Z,100.00
2019-06-01T04:39:38.006Z,100.00
2019-06-01T04:42:05.529Z,100.00
2019-06-01T04:44:32.306Z,100.00
2019-06-01T04:46:59.086Z,100.00
2019-06-01T04:49:25.764Z,100.00
2019-06-01T04:51:52.491Z,100.00
2019-06-01T04:54:19.217Z,100.00
2019-06-01T04:56:46.064Z,100.00
2019-06-01T04:59:13.061Z,100.00
2019-06-01T05:01:39.800Z,100.00
2019-06-01T05:04:07.090Z,100.00
2019-06-01T05:06:34.000Z,100.00
2019-06-01T05:09:00.679Z,100.00
2019-06-01T05:11:27.373Z,100.00
2019-06-01T05:13:54.034Z,100.00
2019-06-01T05:16:20.815Z,100.00
2019-06-01T05:18:47.542Z,100.00
2019-06-01T05:21:17.432Z,100.00
2019-06-01T05:23:44.125Z,100.00
2019-06-01T05:26:10.970Z,100.00
2019-06-01T05:28:37.723Z,100.00
2019-06-01T05:31:04.470Z,100.00
2019-06-01T05:33:37.484Z,100.00
2019-06-01T05:35:59.818Z,100.00
2019-06-01T05:38:26.724Z,100.00
2019-06-01T05:40:54.404Z,100.00
2019-06-01T05:43:21.447Z,100.00
2019-06-01T05:45:48.303Z,100.00
2019-06-01T05:48:20.737Z,100.00
2019-06-01T05:50:43.685Z,100.00
2019-06-01T05:53:10.496Z,100.00
2019-06-01T05:55:37.193Z,100.00
2019-06-01T05:58:04.073Z,100.00
2019-06-01T06:00:41.218Z,100.00
2019-06-01T06:03:08.013Z,100.00
2019-06-01T06:05:34.689Z,100.00
2019-06-01T06:08:01.519Z,100.00
2019-06-01T06:10:28.283Z,100.00
2019-06-01T06:12:54.958Z,100.00
2019-06-01T06:15:21.901Z,100.00
2019-06-01T06:17:48.530Z,100.00
2019-06-01T06:20:15.979Z,100.00
2019-06-01T06:22:42.798Z,100.00
2019-06-01T06:25:09.532Z,100.00
2019-06-01T06:27:36.238Z,100.00
2019-06-01T06:30:04.261Z,100.00
2019-06-01T06:32:30.994Z,100.00
2019-06-01T06:34:57.653Z,100.00
2019-06-01T06:37:24.342Z,100.00
2019-06-01T06:39:51.130Z,100.00
2019-06-01T06:42:18.614Z,100.00
2019-06-01T06:44:45.478Z,100.00
2019-06-01T06:47:12.520Z,100.00
2019-06-01T06:49:39.231Z,100.00
2019-06-01T06:52:06.018Z,100.00
2019-06-01T06:54:32.702Z,100.00
2019-06-01T06:56:59.419Z,100.00
2019-06-01T06:59:26.737Z,100.00
2019-06-01T07:01:53.624Z,100.00
2019-06-01T07:04:21.391Z,100.00
2019-06-01T07:06:48.440Z,100.00
2019-06-01T07:09:15.250Z,100.00
2019-06-01T07:11:42.064Z,100.00
2019-06-01T07:14:08.835Z,100.00
2019-06-01T07:16:35.525Z,100.00
2019-06-01T07:19:02.316Z,100.00
2019-06-01T07:21:30.283Z,100.00
2019-06-01T07:23:56.990Z,100.00
2019-06-01T07:26:24.120Z,100.00
2019-06-01T07:28:50.880Z,100.00
2019-06-01T07:31:17.559Z,100.00
2019-06-01T07:33:44.292Z,100.00
2019-06-01T07:36:12.067Z,100.00
2019-06-01T07:38:38.753Z,100.00
2019-06-01T07:41:05.436Z,100.00
2019-06-01T07:43:33.164Z,100.00
2019-06-01T07:46:00.112Z,100.00
2019-06-01T07:48:27.201Z,100.00
2019-06-01T07:50:53.888Z,100.00
2019-06-01T07:53:20.997Z,100.00
2019-06-01T07:55:48.368Z,100.00
2019-06-01T07:58:16.431Z,100.00
2019-06-01T08:00:43.210Z,100.00
2019-06-01T08:03:09.911Z,100.00
2019-06-01T08:05:36.714Z,100.00
2019-06-01T08:08:03.497Z,100.00
2019-06-01T08:10:31.745Z,100.00
2019-06-01T08:12:58.810Z,100.00
2019-06-01T08:15:25.802Z,100.00
2019-06-01T08:17:52.593Z,100.00
2019-06-01T08:20:19.492Z,100.00
2019-06-01T08:22:46.458Z,100.00
2019-06-01T08:25:13.277Z,100.00
2019-06-01T08:27:40.376Z,100.00
2019-06-01T08:30:07.666Z,100.00
2019-06-01T08:32:34.494Z,100.00
2019-06-01T08:35:08.753Z,100.00
2019-06-01T08:37:31.369Z,100.00
2019-06-01T08:39:59.429Z,100.00
2019-06-01T08:42:27.373Z,100.00
2019-06-01T08:44:54.153Z,100.00
2019-06-01T08:47:20.950Z,100.00
2019-06-01T08:49:47.736Z,100.00
2019-06-01T08:52:14.450Z,100.00
2019-06-01T08:54:41.225Z,100.00
2019-06-01T08:57:07.903Z,100.00
2019-06-01T08:59:34.708Z,100.00
2019-06-01T09:02:01.500Z,100.00
2019-06-01T09:04:28.848Z,100.00
2019-06-01T09:06:55.709Z,100.00
2019-06-01T09:09:22.601Z,100.00
2019-06-01T09:11:49.309Z,100.00
2019-06-01T09:14:15.985Z,100.00
2019-06-01T09:16:42.797Z,100.00
2019-06-01T09:19:11.343Z,100.00
2019-06-01T09:21:38.092Z,100.00
2019-06-01T09:24:04.963Z,100.00
2019-06-01T09:26:32.021Z,100.00
2019-06-01T09:28:58.846Z,100.00
2019-06-01T09:31:26.258Z,100.00
2019-06-01T09:33:53.040Z,100.00
2019-06-01T09:36:19.759Z,100.00
2019-06-01T09:38:46.536Z,100.00
2019-06-01T09:41:13.447Z,100.00
2019-06-01T09:43:40.213Z,100.00
2019-06-01T09:46:06.978Z,100.00
2019-06-01T09:48:33.670Z,100.00
2019-06-01T09:51:00.470Z,100.00
2019-06-01T09:53:28.909Z,100.00
2019-06-01T09:55:55.847Z,100.00
2019-06-01T09:58:22.541Z,100.00
2019-06-01T10:00:49.318Z,100.00
2019-06-01T10:03:16.122Z,100.00
2019-06-01T10:05:42.926Z,100.00
2019-06-01T10:08:09.611Z,100.00
2019-06-01T10:10:36.295Z,100.00
2019-06-01T10:13:03.245Z,100.00
2019-06-01T10:15:30.187Z,100.00
2019-06-01T10:17:56.910Z,100.00
2019-06-01T10:20:23.638Z,100.00
2019-06-01T10:22:50.311Z,99.62
2019-06-01T10:25:17.090Z,99.30
2019-06-01T10:27:43.773Z,99.27
2019-06-01T10:30:10.987Z,100.00
2019-06-01T10:32:38.131Z,100.00
2019-06-01T10:35:05.302Z,100.00
2019-06-01T10:37:33.343Z,100.00
2019-06-01T10:40:00.331Z,100.00
2019-06-01T10:42:27.033Z,100.00
2019-06-01T10:44:53.724Z,98.61
2019-06-01T10:47:20.546Z,96.61
2019-06-01T10:49:47.234Z,92.79
2019-06-01T10:52:14.899Z,92.29
2019-06-01T10:54:42.509Z,100.00
2019-06-01T10:57:09.479Z,98.71
2019-06-01T10:59:36.332Z,94.57
2019-06-01T11:02:03.146Z,93.78
2019-06-01T11:04:29.923Z,98.18
2019-06-01T11:06:56.676Z,92.39
2019-06-01T11:09:23.436Z,90.13
2019-06-01T11:11:50.315Z,92.72
2019-06-01T11:14:17.372Z,95.84
2019-06-01T11:16:45.191Z,90.64
2019-06-01T11:19:12.271Z,87.58
2019-06-01T11:21:39.544Z,88.19
2019-06-01T11:24:06.615Z,90.55
2019-06-01T11:26:33.749Z,89.81
2019-06-01T11:29:00.543Z,90.62
2019-06-01T11:31:27.766Z,85.55
2019-06-01T11:33:55.048Z,88.28
2019-06-01T11:36:21.830Z,89.72
2019-06-01T11:38:48.715Z,88.41
2019-06-01T11:41:18.486Z,89.25
2019-06-01T11:43:45.870Z,89.70
2019-06-01T11:46:12.982Z,88.41
2019-06-01T11:48:41.422Z,93.69
2019-06-01T11:51:08.331Z,94.02
2019-06-01T11:53:35.196Z,86.63
2019-06-01T11:56:02.071Z,83.65
2019-06-01T11:58:28.763Z,84.99
2019-06-01T12:00:55.755Z,83.36
2019-06-01T12:03:22.570Z,81.78
2019-06-01T12:05:49.596Z,83.24
2019-06-01T12:08:16.504Z,84.95
2019-06-01T12:10:43.232Z,84.92
2019-06-01T12:13:10.380Z,85.91
2019-06-01T12:15:38.304Z,83.48
2019-06-01T12:18:05.366Z,81.06
2019-06-01T12:20:32.362Z,76.55
2019-06-01T12:22:59.549Z,77.80
2019-06-01T12:25:26.263Z,78.24
2019-06-01T12:27:53.058Z,77.41
2019-06-01T12:30:20.223Z,75.80
2019-06-01T12:32:48.736Z,75.61
2019-06-01T12:35:15.787Z,74.98
2019-06-01T12:37:59.675Z,71.21
2019-06-01T12:40:12.952Z,73.02
2019-06-01T12:42:39.905Z,71.57
2019-06-01T12:45:07.830Z,69.54
2019-06-01T12:47:34.566Z,69.04
2019-06-01T12:50:01.700Z,71.21
2019-06-01T12:52:28.325Z,75.60
2019-06-01T12:54:55.203Z,77.23
2019-06-01T12:57:22.225Z,76.78
2019-06-01T12:59:49.243Z,74.00
2019-06-01T13:02:15.913Z,70.56
2019-06-01T13:04:42.914Z,65.91
2019-06-01T13:07:09.666Z,70.41
2019-06-01T13:09:36.342Z,68.26
2019-06-01T13:12:03.265Z,71.41
2019-06-01T13:14:29.956Z,69.46
2019-06-01T13:17:06.745Z,65.48
2019-06-01T13:19:26.181Z,64.23
2019-06-01T13:21:52.897Z,65.04
2019-06-01T13:24:19.678Z,62.33
2019-06-01T13:26:47.833Z,63.39
2019-06-01T13:29:15.335Z,64.30
2019-06-01T13:31:42.194Z,61.98
2019-06-01T13:34:09.339Z,62.93
2019-06-01T13:36:36.007Z,63.58
2019-06-01T13:39:05.858Z,64.55
2019-06-01T13:41:32.639Z,63.53
2019-06-01T13:43:59.337Z,59.61
2019-06-01T13:46:26.002Z,62.44
2019-06-01T13:48:54.194Z,69.09
2019-06-01T13:51:21.297Z,74.78
2019-06-01T13:53:48.545Z,75.54
2019-06-01T13:56:17.602Z,74.58
2019-06-01T13:58:44.665Z,73.54
2019-06-01T14:01:11.484Z,74.79
2019-06-01T14:03:39.038Z,72.48
2019-06-01T14:06:07.275Z,74.79
2019-06-01T14:08:34.101Z,75.41
2019-06-01T14:11:00.792Z,72.29
2019-06-01T14:13:28.834Z,70.73
2019-06-01T14:15:55.722Z,74.15
2019-06-01T14:18:22.569Z,75.96
2019-06-01T14:20:49.712Z,73.62
2019-06-01T14:23:18.063Z,78.98
2019-06-01T14:25:45.862Z,76.73
2019-06-01T14:28:13.112Z,81.40
2019-06-01T14:30:39.783Z,77.14
2019-06-01T14:33:08.425Z,79.50
2019-06-01T14:35:36.010Z,77.91
2019-06-01T14:38:03.202Z,84.19
2019-06-01T14:40:30.161Z,83.09
2019-06-01T14:42:58.441Z,80.55
2019-06-01T14:45:25.375Z,83.73
2019-06-01T14:47:53.461Z,86.48
2019-06-01T14:50:20.431Z,85.57
2019-06-01T14:52:47.642Z,85.13
2019-06-01T14:55:14.612Z,86.97
2019-06-01T14:57:41.319Z,91.21
2019-06-01T15:00:08.739Z,96.16
2019-06-01T15:02:35.524Z,93.84
2019-06-01T15:05:02.697Z,97.16
2019-06-01T15:07:29.383Z,99.45
2019-06-01T15:09:56.391Z,98.21
2019-06-01T15:12:26.384Z,96.53
2019-06-01T15:14:53.362Z,100.00
2019-06-01T15:17:20.809Z,100.00
2019-06-01T15:19:48.046Z,100.00
2019-06-01T15:22:15.110Z,100.00
2019-06-01T15:24:43.028Z,100.00
2019-06-01T15:27:09.725Z,100.00
2019-06-01T15:29:38.606Z,100.00
2019-06-01T15:32:05.919Z,100.00
2019-06-01T15:34:32.855Z,100.00
2019-06-01T15:36:59.750Z,100.00
2019-06-01T15:39:26.503Z,100.00
2019-06-01T15:41:53.511Z,100.00
2019-06-01T15:44:20.340Z,100.00
2019-06-01T15:46:47.141Z,100.00
2019-06-01T15:49:13.930Z,100.00
2019-06-01T15:51:41.409Z,100.00
2019-06-01T15:54:08.094Z,100.00
2019-06-01T15:56:34.797Z,100.00
2019-06-01T15:59:02.752Z,100.00
2019-06-01T16:01:30.018Z,100.00
2019-06-01T16:03:57.295Z,100.00
2019-06-01T16:06:24.471Z,100.00
2019-06-01T16:08:51.521Z,100.00
2019-06-01T16:11:18.316Z,100.00
2019-06-01T16:13:45.102Z,100.00
2019-06-01T16:16:11.898Z,100.00
2019-06-01T16:18:39.080Z,100.00
2019-06-01T16:21:06.254Z,100.00
2019-06-01T16:23:48.735Z,100.00
2019-06-01T16:26:13.247Z,100.00
2019-06-01T16:28:31.989Z,100.00
2019-06-01T16:30:58.786Z,100.00
2019-06-01T16:33:25.679Z,100.00
2019-06-01T16:35:52.441Z,100.00
2019-06-01T16:38:20.342Z,100.00
2019-06-01T16:40:47.155Z,100.00
2019-06-01T16:43:13.934Z,100.00
2019-06-01T16:45:40.731Z,100.00
2019-06-01T16:48:07.683Z,100.00
2019-06-01T16:50:34.464Z,100.00
2019-06-01T16:53:02.105Z,100.00
2019-06-01T16:55:31.467Z,100.00
2019-06-01T16:57:58.734Z,100.00
2019-06-01T17:00:25.610Z,100.00
2019-06-01T17:02:52.404Z,100.00
2019-06-01T17:05:19.226Z,100.00
2019-06-01T17:07:46.139Z,100.00
2019-06-01T17:10:25.736Z,100.00
2019-06-01T17:12:43.907Z,100.00
2019-06-01T17:15:11.177Z,100.00
2019-06-01T17:17:38.019Z,100.00
2019-06-01T17:20:07.355Z,100.00
2019-06-01T17:22:34.423Z,100.00
2019-06-01T17:25:01.810Z,100.00
2019-06-01T17:27:28.743Z,100.00
2019-06-01T17:29:55.805Z,100.00
2019-06-01T17:32:24.996Z,100.00
2019-06-01T17:34:52.001Z,100.00
2019-06-01T17:37:19.240Z,100.00
2019-06-01T17:39:47.607Z,100.00
2019-06-01T17:42:14.593Z,100.00
2019-06-01T17:44:41.294Z,100.00
2019-06-01T17:47:08.564Z,100.00
2019-06-01T17:49:35.347Z,100.00
2019-06-01T17:52:03.574Z,100.00
2019-06-01T17:54:30.619Z,100.00
2019-06-01T17:56:58.421Z,100.00
2019-06-01T17:59:25.211Z,100.00
2019-06-01T18:01:52.003Z,100.00
2019-06-01T18:04:18.817Z,100.00
2019-06-01T18:06:45.649Z,100.00
2019-06-01T18:09:12.515Z,100.00
2019-06-01T18:11:39.388Z,100.00
2019-06-01T18:14:08.229Z,100.00
2019-06-01T18:16:35.133Z,100.00
2019-06-01T18:19:02.176Z,100.00
2019-06-01T18:21:28.910Z,100.00
2019-06-01T18:23:55.695Z,100.00
2019-06-01T18:26:22.511Z,100.00
2019-06-01T18:28:49.341Z,100.00
2019-06-01T18:31:16.061Z,100.00
2019-06-01T18:33:43.123Z,100.00
2019-06-01T18:36:09.887Z,100.00
2019-06-01T18:38:36.980Z,100.00
2019-06-01T18:41:12.872Z,100.00
2019-06-01T18:43:32.497Z,100.00
2019-06-01T18:45:59.325Z,100.00
2019-06-01T18:48:27.087Z,100.00
2019-06-01T18:50:53.941Z,100.00
2019-06-01T18:53:20.764Z,100.00
2019-06-01T18:55:47.558Z,100.00
2019-06-01T18:58:14.880Z,100.00
2019-06-01T19:00:42.349Z,100.00
2019-06-01T19:03:09.125Z,100.00
2019-06-01T19:05:35.919Z,100.00
2019-06-01T19:08:02.630Z,100.00
2019-06-01T19:10:30.419Z,100.00
2019-06-01T19:12:57.083Z,100.00
2019-06-01T19:15:28.507Z,100.00
2019-06-01T19:17:52.821Z,100.00
2019-06-01T19:20:19.676Z,100.00
2019-06-01T19:22:46.707Z,100.00
2019-06-01T19:25:15.016Z,100.00
2019-06-01T19:27:41.864Z,100.00
2019-06-01T19:30:10.838Z,100.00
2019-06-01T19:32:37.907Z,100.00
2019-06-01T19:35:05.114Z,100.00
2019-06-01T19:37:32.491Z,100.00
2019-06-01T19:40:00.106Z,100.00
2019-06-01T19:42:27.042Z,100.00
2019-06-01T19:44:53.951Z,100.00
2019-06-01T19:47:20.729Z,100.00
2019-06-01T19:49:47.681Z,100.00
2019-06-01T19:52:14.849Z,100.00
2019-06-01T19:54:41.723Z,100.00
2019-06-01T19:57:09.713Z,100.00
2019-06-01T19:59:36.704Z,100.00
2019-06-01T20:02:03.497Z,100.00
2019-06-01T20:04:30.306Z,100.00
2019-06-01T20:06:57.138Z,100.00
2019-06-01T20:09:23.823Z,100.00
2019-06-01T20:12:01.302Z,100.00
2019-06-01T20:14:20.766Z,100.00
2019-06-01T20:16:47.657Z,100.00
2019-06-01T20:19:15.606Z,100.00
2019-06-01T20:21:42.852Z,100.00
2019-06-01T20:24:09.554Z,100.00
2019-06-01T20:26:41.993Z,100.00
2019-06-01T20:29:06.837Z,100.00
2019-06-01T20:31:33.888Z,100.00
2019-06-01T20:34:00.819Z,100.00
2019-06-01T20:36:27.917Z,100.00
2019-06-01T20:38:54.583Z,100.00
2019-06-01T20:41:22.571Z,100.00
2019-06-01T20:43:49.667Z,100.00
2019-06-01T20:46:16.774Z,100.00
2019-06-01T20:48:43.612Z,100.00
2019-06-01T20:51:10.524Z,100.00
2019-06-01T20:53:37.333Z,100.00
2019-06-01T20:56:04.100Z,100.00
2019-06-01T20:58:30.908Z,100.00
2019-06-01T21:00:57.572Z,100.00
2019-06-01T21:03:24.589Z,100.00
2019-06-01T21:05:51.240Z,100.00
2019-06-01T21:08:18.159Z,100.00
2019-06-01T21:10:44.887Z,100.00
2019-06-01T21:13:11.669Z,100.00
2019-06-01T21:15:38.530Z,100.00
2019-06-01T21:18:05.346Z,100.00
2019-06-01T21:20:32.212Z,100.00
2019-06-01T21:22:58.897Z,100.00
2019-06-01T21:25:25.682Z,100.00
2019-06-01T21:27:52.457Z,100.00
2019-06-01T21:30:22.335Z,100.00
2019-06-01T21:32:47.949Z,100.00
2019-06-01T21:35:15.250Z,100.00
2019-06-01T21:37:41.978Z,100.00
2019-06-01T21:40:09.070Z,100.00
2019-06-01T21:42:38.406Z,100.00
2019-06-01T21:45:04.634Z,100.00
2019-06-01T21:47:32.907Z,100.00
2019-06-01T21:49:59.664Z,100.00
2019-06-01T21:52:26.494Z,100.00
2019-06-01T21:54:53.229Z,100.00
2019-06-01T21:57:20.215Z,100.00
2019-06-01T21:59:46.942Z,100.00
2019-06-01T22:02:13.863Z,100.00
2019-06-01T22:04:40.627Z,100.00
2019-06-01T22:07:07.312Z,100.00
2019-06-01T22:09:35.017Z,100.00
2019-06-01T22:12:01.702Z,100.00
2019-06-01T22:14:28.504Z,100.00
2019-06-01T22:16:55.190Z,100.00
2019-06-01T22:19:21.841Z,100.00
2019-06-01T22:21:48.622Z,100.00
2019-06-01T22:24:15.311Z,100.00
2019-06-01T22:26:41.986Z,100.00
2019-06-01T22:29:08.709Z,100.00
2019-06-01T22:31:35.379Z,100.00
2019-06-01T22:34:02.057Z,100.00
2019-06-01T22:36:29.367Z,100.00
2019-06-01T22:38:56.104Z,100.00
2019-06-01T22:41:23.845Z,100.00
2019-06-01T22:43:50.668Z,100.00
2019-06-01T22:46:17.330Z,100.00
2019-06-01T22:48:44.123Z,100.00
2019-06-01T22:51:10.781Z,100.00
2019-06-01T22:53:37.547Z,100.00
2019-06-01T22:56:04.348Z,100.00
2019-06-01T22:58:31.610Z,100.00
2019-06-01T23:00:58.625Z,100.00
2019-06-01T23:03:25.786Z,100.00
2019-06-01T23:05:52.603Z,100.00
2019-06-01T23:08:19.261Z,100.00
2019-06-01T23:10:46.144Z,100.00
2019-06-01T23:13:12.922Z,100.00
2019-06-01T23:15:39.687Z,100.00
2019-06-01T23:18:06.457Z,100.00
2019-06-01T23:20:33.145Z,100.00
2019-06-01T23:22:59.814Z,100.00
2019-06-01T23:25:28.593Z,100.00
2019-06-01T23:27:55.445Z,100.00
2019-06-01T23:30:22.215Z,100.00
2019-06-01T23:32:49.040Z,100.00
2019-06-01T23:35:15.803Z,100.00
2019-06-01T23:37:43.473Z,100.00
2019-06-01T23:40:10.548Z,100.00
2019-06-01T23:42:37.218Z,100.00
2019-06-01T23:45:04.799Z,100.00
2019-06-01T23:47:31.466Z,100.00
2019-06-01T23:49:58.135Z,100.00
2019-06-01T23:52:25.543Z,100.00
2019-06-01T23:54:52.415Z,100.00
2019-06-01T23:57:19.174Z,100.00
2019-06-01T23:59:45.854Z,100.00
